sensor_id;sensor_type;location;lat;lon;timestamp;P1;durP1;ratioP1;P2;durP2;ratioP2
32705;SDS011;19094;50.972;3.538;2022-12-29T00:02:12;1.50;;;0.70;;
32705;SDS011;19094;50.972;3.538;2022-12-29T00:04:38;1.05;;;0.80;;
32705;SDS011;19094;50.972;3.538;2022-12-29T00:07:04;3.03;;;0.77;;
32705;SDS011;19094;50.972;3.538;2022-12-29T00:09:30;1.73;;;0.80;;
32705;SDS011;19094;50.972;3.538;2022-12-29T00:11:57;0.85;;;0.60;;
32705;SDS011;19094;50.972;3.538;2022-12-29T00:14:23;1.52;;;0.90;;
32705;SDS011;19094;50.972;3.538;2022-12-29T00:17:07;1.33;;;0.77;;
32705;SDS011;19094;50.972;3.538;2022-12-29T00:19:33;2.17;;;1.13;;
32705;SDS011;19094;50.972;3.538;2022-12-29T00:25:02;1.15;;;0.60;;
32705;SDS011;19094;50.972;3.538;2022-12-29T00:27:47;2.75;;;0.93;;
32705;SDS011;19094;50.972;3.538;2022-12-29T00:30:31;2.15;;;0.90;;
32705;SDS011;19094;50.972;3.538;2022-12-29T00:33:19;2.63;;;1.00;;
32705;SDS011;19094;50.972;3.538;2022-12-29T00:36:23;4.18;;;0.93;;
32705;SDS011;19094;50.972;3.538;2022-12-29T00:39:01;2.30;;;0.90;;
32705;SDS011;19094;50.972;3.538;2022-12-29T00:41:48;3.47;;;0.85;;
32705;SDS011;19094;50.972;3.538;2022-12-29T00:44:32;5.07;;;1.00;;
32705;SDS011;19094;50.972;3.538;2022-12-29T00:46:58;3.55;;;0.90;;
32705;SDS011;19094;50.972;3.538;2022-12-29T00:49:28;3.75;;;1.40;;
32705;SDS011;19094;50.972;3.538;2022-12-29T00:54:25;4.65;;;0.93;;
32705;SDS011;19094;50.972;3.538;2022-12-29T00:56:52;5.68;;;1.27;;
32705;SDS011;19094;50.972;3.538;2022-12-29T00:59:18;4.15;;;0.88;;
32705;SDS011;19094;50.972;3.538;2022-12-29T01:01:45;5.95;;;0.93;;
32705;SDS011;19094;50.972;3.538;2022-12-29T01:04:11;5.85;;;1.20;;
32705;SDS011;19094;50.972;3.538;2022-12-29T01:06:37;4.47;;;1.00;;
32705;SDS011;19094;50.972;3.538;2022-12-29T01:09:04;5.45;;;1.63;;
32705;SDS011;19094;50.972;3.538;2022-12-29T01:11:50;3.72;;;0.90;;
32705;SDS011;19094;50.972;3.538;2022-12-29T01:14:16;5.90;;;1.33;;
32705;SDS011;19094;50.972;3.538;2022-12-29T01:16:43;5.82;;;1.10;;
32705;SDS011;19094;50.972;3.538;2022-12-29T01:19:09;5.57;;;0.98;;
32705;SDS011;19094;50.972;3.538;2022-12-29T01:21:34;5.60;;;1.23;;
32705;SDS011;19094;50.972;3.538;2022-12-29T01:24:00;7.15;;;1.15;;
32705;SDS011;19094;50.972;3.538;2022-12-29T01:26:26;4.95;;;0.98;;
32705;SDS011;19094;50.972;3.538;2022-12-29T01:28:52;4.07;;;1.02;;
32705;SDS011;19094;50.972;3.538;2022-12-29T01:31:17;9.98;;;1.83;;
32705;SDS011;19094;50.972;3.538;2022-12-29T01:33:43;5.32;;;0.95;;
32705;SDS011;19094;50.972;3.538;2022-12-29T01:36:10;4.22;;;1.10;;
32705;SDS011;19094;50.972;3.538;2022-12-29T01:38:38;8.68;;;1.48;;
32705;SDS011;19094;50.972;3.538;2022-12-29T01:41:05;6.10;;;1.10;;
32705;SDS011;19094;50.972;3.538;2022-12-29T01:49:10;4.53;;;1.10;;
32705;SDS011;19094;50.972;3.538;2022-12-29T01:51:48;5.78;;;1.30;;
32705;SDS011;19094;50.972;3.538;2022-12-29T01:54:22;6.07;;;0.90;;
32705;SDS011;19094;50.972;3.538;2022-12-29T01:56:52;7.68;;;0.93;;
32705;SDS011;19094;50.972;3.538;2022-12-29T01:59:22;4.88;;;1.15;;
32705;SDS011;19094;50.972;3.538;2022-12-29T02:01:51;5.20;;;1.10;;
32705;SDS011;19094;50.972;3.538;2022-12-29T02:04:17;7.38;;;1.10;;
32705;SDS011;19094;50.972;3.538;2022-12-29T02:06:45;4.25;;;0.85;;
32705;SDS011;19094;50.972;3.538;2022-12-29T02:09:31;3.42;;;0.73;;
32705;SDS011;19094;50.972;3.538;2022-12-29T02:11:57;6.95;;;1.10;;
32705;SDS011;19094;50.972;3.538;2022-12-29T02:14:24;5.63;;;1.05;;
32705;SDS011;19094;50.972;3.538;2022-12-29T02:39:11;10.18;;;1.13;;
32705;SDS011;19094;50.972;3.538;2022-12-29T02:42:08;3.72;;;0.82;;
32705;SDS011;19094;50.972;3.538;2022-12-29T02:47:47;3.58;;;1.02;;
32705;SDS011;19094;50.972;3.538;2022-12-29T02:50:39;4.07;;;1.40;;
32705;SDS011;19094;50.972;3.538;2022-12-29T02:53:11;9.43;;;1.00;;
32705;SDS011;19094;50.972;3.538;2022-12-29T02:55:47;6.40;;;1.00;;
32705;SDS011;19094;50.972;3.538;2022-12-29T03:09:25;5.82;;;1.65;;
32705;SDS011;19094;50.972;3.538;2022-12-29T03:15:28;9.93;;;1.20;;
32705;SDS011;19094;50.972;3.538;2022-12-29T03:18:25;8.02;;;1.00;;
32705;SDS011;19094;50.972;3.538;2022-12-29T03:20:54;11.07;;;1.67;;
32705;SDS011;19094;50.972;3.538;2022-12-29T03:23:25;12.18;;;1.50;;
32705;SDS011;19094;50.972;3.538;2022-12-29T03:25:54;7.55;;;1.25;;
32705;SDS011;19094;50.972;3.538;2022-12-29T03:28:24;6.30;;;0.90;;
32705;SDS011;19094;50.972;3.538;2022-12-29T03:30:54;5.82;;;1.30;;
32705;SDS011;19094;50.972;3.538;2022-12-29T03:33:23;8.70;;;0.85;;
32705;SDS011;19094;50.972;3.538;2022-12-29T03:35:52;8.70;;;1.65;;
32705;SDS011;19094;50.972;3.538;2022-12-29T03:40:52;5.65;;;1.25;;
32705;SDS011;19094;50.972;3.538;2022-12-29T03:43:21;9.88;;;1.45;;
32705;SDS011;19094;50.972;3.538;2022-12-29T03:45:48;10.90;;;1.58;;
32705;SDS011;19094;50.972;3.538;2022-12-29T03:48:14;9.07;;;1.15;;
32705;SDS011;19094;50.972;3.538;2022-12-29T03:50:40;13.15;;;1.88;;
32705;SDS011;19094;50.972;3.538;2022-12-29T03:53:05;8.02;;;0.95;;
32705;SDS011;19094;50.972;3.538;2022-12-29T03:55:31;11.07;;;1.40;;
32705;SDS011;19094;50.972;3.538;2022-12-29T03:57:57;8.20;;;1.35;;
32705;SDS011;19094;50.972;3.538;2022-12-29T04:00:23;11.68;;;1.40;;
32705;SDS011;19094;50.972;3.538;2022-12-29T04:02:49;14.02;;;1.75;;
32705;SDS011;19094;50.972;3.538;2022-12-29T04:05:15;9.80;;;1.40;;
32705;SDS011;19094;50.972;3.538;2022-12-29T04:07:41;7.85;;;1.52;;
32705;SDS011;19094;50.972;3.538;2022-12-29T04:10:06;12.32;;;1.60;;
32705;SDS011;19094;50.972;3.538;2022-12-29T04:12:32;10.25;;;1.60;;
32705;SDS011;19094;50.972;3.538;2022-12-29T04:14:58;12.30;;;1.70;;
32705;SDS011;19094;50.972;3.538;2022-12-29T04:17:24;6.70;;;1.60;;
32705;SDS011;19094;50.972;3.538;2022-12-29T04:19:49;12.80;;;1.35;;
32705;SDS011;19094;50.972;3.538;2022-12-29T04:22:16;10.15;;;1.40;;
32705;SDS011;19094;50.972;3.538;2022-12-29T04:24:41;5.75;;;0.90;;
32705;SDS011;19094;50.972;3.538;2022-12-29T04:27:07;3.05;;;0.88;;
32705;SDS011;19094;50.972;3.538;2022-12-29T04:29:33;7.22;;;1.27;;
32705;SDS011;19094;50.972;3.538;2022-12-29T04:31:58;9.70;;;1.65;;
32705;SDS011;19094;50.972;3.538;2022-12-29T04:34:24;11.10;;;1.27;;
32705;SDS011;19094;50.972;3.538;2022-12-29T04:36:49;9.05;;;1.27;;
32705;SDS011;19094;50.972;3.538;2022-12-29T04:39:15;11.25;;;1.15;;
32705;SDS011;19094;50.972;3.538;2022-12-29T04:41:41;5.68;;;1.15;;
32705;SDS011;19094;50.972;3.538;2022-12-29T04:44:06;25.20;;;1.88;;
32705;SDS011;19094;50.972;3.538;2022-12-29T04:46:32;15.35;;;2.55;;
32705;SDS011;19094;50.972;3.538;2022-12-29T04:48:58;4.78;;;1.33;;
32705;SDS011;19094;50.972;3.538;2022-12-29T04:51:25;5.68;;;1.33;;
32705;SDS011;19094;50.972;3.538;2022-12-29T04:53:51;7.15;;;0.95;;
32705;SDS011;19094;50.972;3.538;2022-12-29T04:56:17;17.13;;;1.63;;
32705;SDS011;19094;50.972;3.538;2022-12-29T04:58:42;6.90;;;1.45;;
32705;SDS011;19094;50.972;3.538;2022-12-29T05:01:08;7.93;;;1.40;;
32705;SDS011;19094;50.972;3.538;2022-12-29T05:03:34;6.57;;;1.58;;
32705;SDS011;19094;50.972;3.538;2022-12-29T05:05:59;10.73;;;1.67;;
32705;SDS011;19094;50.972;3.538;2022-12-29T05:08:25;9.00;;;1.25;;
32705;SDS011;19094;50.972;3.538;2022-12-29T05:10:51;7.22;;;1.25;;
32705;SDS011;19094;50.972;3.538;2022-12-29T05:13:17;8.70;;;1.38;;
32705;SDS011;19094;50.972;3.538;2022-12-29T05:15:49;8.85;;;1.50;;
32705;SDS011;19094;50.972;3.538;2022-12-29T05:18:16;8.63;;;1.30;;
32705;SDS011;19094;50.972;3.538;2022-12-29T05:20:42;9.23;;;1.40;;
32705;SDS011;19094;50.972;3.538;2022-12-29T05:23:07;10.25;;;2.03;;
32705;SDS011;19094;50.972;3.538;2022-12-29T05:25:33;6.10;;;1.20;;
32705;SDS011;19094;50.972;3.538;2022-12-29T05:27:59;9.23;;;1.27;;
32705;SDS011;19094;50.972;3.538;2022-12-29T05:30:24;8.07;;;1.55;;
32705;SDS011;19094;50.972;3.538;2022-12-29T05:32:50;6.88;;;1.25;;
32705;SDS011;19094;50.972;3.538;2022-12-29T05:35:16;8.00;;;1.20;;
32705;SDS011;19094;50.972;3.538;2022-12-29T05:37:41;13.18;;;1.35;;
32705;SDS011;19094;50.972;3.538;2022-12-29T05:40:07;7.60;;;1.30;;
32705;SDS011;19094;50.972;3.538;2022-12-29T05:42:33;9.80;;;1.10;;
32705;SDS011;19094;50.972;3.538;2022-12-29T05:44:59;16.77;;;1.40;;
32705;SDS011;19094;50.972;3.538;2022-12-29T05:47:25;10.85;;;2.03;;
32705;SDS011;19094;50.972;3.538;2022-12-29T05:49:50;8.15;;;1.40;;
32705;SDS011;19094;50.972;3.538;2022-12-29T05:52:17;14.38;;;2.28;;
32705;SDS011;19094;50.972;3.538;2022-12-29T05:54:42;11.73;;;1.50;;
32705;SDS011;19094;50.972;3.538;2022-12-29T05:57:08;6.15;;;1.40;;
32705;SDS011;19094;50.972;3.538;2022-12-29T05:59:34;8.73;;;1.70;;
32705;SDS011;19094;50.972;3.538;2022-12-29T06:02:00;8.23;;;1.55;;
32705;SDS011;19094;50.972;3.538;2022-12-29T06:04:26;12.95;;;1.77;;
32705;SDS011;19094;50.972;3.538;2022-12-29T06:06:51;12.82;;;2.25;;
32705;SDS011;19094;50.972;3.538;2022-12-29T06:09:17;9.77;;;1.60;;
32705;SDS011;19094;50.972;3.538;2022-12-29T06:11:43;8.88;;;1.30;;
32705;SDS011;19094;50.972;3.538;2022-12-29T06:14:08;10.05;;;2.38;;
32705;SDS011;19094;50.972;3.538;2022-12-29T06:16:34;9.60;;;1.73;;
32705;SDS011;19094;50.972;3.538;2022-12-29T06:19:01;18.50;;;2.17;;
32705;SDS011;19094;50.972;3.538;2022-12-29T06:21:26;11.27;;;1.90;;
32705;SDS011;19094;50.972;3.538;2022-12-29T06:23:52;12.70;;;2.67;;
32705;SDS011;19094;50.972;3.538;2022-12-29T06:26:18;8.52;;;1.73;;
32705;SDS011;19094;50.972;3.538;2022-12-29T06:28:43;12.80;;;2.08;;
32705;SDS011;19094;50.972;3.538;2022-12-29T06:31:09;14.48;;;3.05;;
32705;SDS011;19094;50.972;3.538;2022-12-29T06:33:36;21.02;;;2.47;;
32705;SDS011;19094;50.972;3.538;2022-12-29T06:36:02;16.65;;;2.15;;
32705;SDS011;19094;50.972;3.538;2022-12-29T06:38:28;15.57;;;2.72;;
32705;SDS011;19094;50.972;3.538;2022-12-29T06:40:53;12.98;;;2.42;;
32705;SDS011;19094;50.972;3.538;2022-12-29T06:43:19;12.48;;;1.85;;
32705;SDS011;19094;50.972;3.538;2022-12-29T06:45:45;18.13;;;2.50;;
32705;SDS011;19094;50.972;3.538;2022-12-29T06:48:10;14.88;;;2.63;;
32705;SDS011;19094;50.972;3.538;2022-12-29T06:50:36;12.93;;;1.63;;
32705;SDS011;19094;50.972;3.538;2022-12-29T06:53:02;11.98;;;2.50;;
32705;SDS011;19094;50.972;3.538;2022-12-29T06:55:28;18.63;;;2.53;;
32705;SDS011;19094;50.972;3.538;2022-12-29T06:57:54;9.10;;;2.15;;
32705;SDS011;19094;50.972;3.538;2022-12-29T07:00:21;14.85;;;2.20;;
32705;SDS011;19094;50.972;3.538;2022-12-29T07:02:47;19.58;;;2.22;;
32705;SDS011;19094;50.972;3.538;2022-12-29T07:05:13;8.95;;;1.63;;
32705;SDS011;19094;50.972;3.538;2022-12-29T07:07:38;6.90;;;1.77;;
32705;SDS011;19094;50.972;3.538;2022-12-29T07:10:04;13.18;;;1.90;;
32705;SDS011;19094;50.972;3.538;2022-12-29T07:12:30;11.27;;;1.52;;
32705;SDS011;19094;50.972;3.538;2022-12-29T07:14:56;34.35;;;5.53;;
32705;SDS011;19094;50.972;3.538;2022-12-29T07:17:22;19.73;;;2.65;;
32705;SDS011;19094;50.972;3.538;2022-12-29T07:19:47;17.08;;;3.13;;
32705;SDS011;19094;50.972;3.538;2022-12-29T07:22:13;24.02;;;5.32;;
32705;SDS011;19094;50.972;3.538;2022-12-29T07:24:39;18.65;;;2.88;;
32705;SDS011;19094;50.972;3.538;2022-12-29T07:27:05;24.05;;;2.85;;
32705;SDS011;19094;50.972;3.538;2022-12-29T07:29:30;14.25;;;2.60;;
32705;SDS011;19094;50.972;3.538;2022-12-29T07:31:56;13.18;;;2.75;;
32705;SDS011;19094;50.972;3.538;2022-12-29T07:34:22;20.15;;;5.35;;
32705;SDS011;19094;50.972;3.538;2022-12-29T07:36:47;12.48;;;2.83;;
32705;SDS011;19094;50.972;3.538;2022-12-29T07:39:13;14.35;;;2.17;;
32705;SDS011;19094;50.972;3.538;2022-12-29T07:41:38;15.27;;;1.88;;
32705;SDS011;19094;50.972;3.538;2022-12-29T07:44:04;17.08;;;3.03;;
32705;SDS011;19094;50.972;3.538;2022-12-29T07:46:30;15.18;;;2.38;;
32705;SDS011;19094;50.972;3.538;2022-12-29T07:48:56;17.33;;;2.83;;
32705;SDS011;19094;50.972;3.538;2022-12-29T07:51:21;14.32;;;1.92;;
32705;SDS011;19094;50.972;3.538;2022-12-29T07:53:47;14.95;;;2.50;;
32705;SDS011;19094;50.972;3.538;2022-12-29T07:56:12;11.77;;;2.35;;
32705;SDS011;19094;50.972;3.538;2022-12-29T07:58:38;17.30;;;3.10;;
32705;SDS011;19094;50.972;3.538;2022-12-29T08:01:04;12.35;;;2.70;;
32705;SDS011;19094;50.972;3.538;2022-12-29T08:03:30;17.08;;;3.00;;
32705;SDS011;19094;50.972;3.538;2022-12-29T08:05:56;18.80;;;2.92;;
32705;SDS011;19094;50.972;3.538;2022-12-29T08:08:22;18.48;;;3.63;;
32705;SDS011;19094;50.972;3.538;2022-12-29T08:10:47;16.25;;;2.95;;
32705;SDS011;19094;50.972;3.538;2022-12-29T08:13:13;13.85;;;2.60;;
32705;SDS011;19094;50.972;3.538;2022-12-29T08:15:39;15.02;;;2.60;;
32705;SDS011;19094;50.972;3.538;2022-12-29T08:18:05;13.30;;;2.38;;
32705;SDS011;19094;50.972;3.538;2022-12-29T08:20:31;16.42;;;2.40;;
32705;SDS011;19094;50.972;3.538;2022-12-29T08:22:57;13.95;;;3.13;;
32705;SDS011;19094;50.972;3.538;2022-12-29T08:25:23;9.25;;;1.80;;
32705;SDS011;19094;50.972;3.538;2022-12-29T08:27:48;7.40;;;2.17;;
32705;SDS011;19094;50.972;3.538;2022-12-29T08:30:14;20.85;;;3.28;;
32705;SDS011;19094;50.972;3.538;2022-12-29T08:32:41;13.70;;;2.35;;
32705;SDS011;19094;50.972;3.538;2022-12-29T08:35:07;20.05;;;2.72;;
32705;SDS011;19094;50.972;3.538;2022-12-29T08:37:33;10.10;;;2.15;;
32705;SDS011;19094;50.972;3.538;2022-12-29T08:39:59;18.48;;;2.85;;
32705;SDS011;19094;50.972;3.538;2022-12-29T08:42:28;11.75;;;2.40;;
32705;SDS011;19094;50.972;3.538;2022-12-29T08:44:56;9.45;;;1.90;;
32705;SDS011;19094;50.972;3.538;2022-12-29T08:47:22;16.38;;;2.55;;
32705;SDS011;19094;50.972;3.538;2022-12-29T08:49:48;13.63;;;1.83;;
32705;SDS011;19094;50.972;3.538;2022-12-29T08:52:14;12.13;;;2.10;;
32705;SDS011;19094;50.972;3.538;2022-12-29T08:54:40;12.32;;;2.45;;
32705;SDS011;19094;50.972;3.538;2022-12-29T08:57:05;12.55;;;2.38;;
32705;SDS011;19094;50.972;3.538;2022-12-29T08:59:31;15.52;;;3.13;;
32705;SDS011;19094;50.972;3.538;2022-12-29T09:01:57;17.75;;;3.03;;
32705;SDS011;19094;50.972;3.538;2022-12-29T09:04:22;11.25;;;2.40;;
32705;SDS011;19094;50.972;3.538;2022-12-29T09:06:48;20.02;;;3.05;;
32705;SDS011;19094;50.972;3.538;2022-12-29T09:09:14;21.38;;;3.45;;
32705;SDS011;19094;50.972;3.538;2022-12-29T09:11:40;19.70;;;2.83;;
32705;SDS011;19094;50.972;3.538;2022-12-29T09:14:06;17.08;;;2.92;;
32705;SDS011;19094;50.972;3.538;2022-12-29T09:16:32;15.18;;;2.80;;
32705;SDS011;19094;50.972;3.538;2022-12-29T09:18:58;18.83;;;3.08;;
32705;SDS011;19094;50.972;3.538;2022-12-29T09:21:24;16.50;;;3.53;;
32705;SDS011;19094;50.972;3.538;2022-12-29T09:23:50;25.00;;;3.88;;
32705;SDS011;19094;50.972;3.538;2022-12-29T09:26:15;17.45;;;3.20;;
32705;SDS011;19094;50.972;3.538;2022-12-29T09:28:41;16.77;;;3.78;;
32705;SDS011;19094;50.972;3.538;2022-12-29T09:31:09;20.38;;;3.05;;
32705;SDS011;19094;50.972;3.538;2022-12-29T09:33:35;23.55;;;3.47;;
32705;SDS011;19094;50.972;3.538;2022-12-29T09:36:03;22.55;;;3.55;;
32705;SDS011;19094;50.972;3.538;2022-12-29T09:38:29;20.67;;;3.05;;
32705;SDS011;19094;50.972;3.538;2022-12-29T09:41:18;21.02;;;2.95;;
32705;SDS011;19094;50.972;3.538;2022-12-29T09:44:04;14.20;;;3.00;;
32705;SDS011;19094;50.972;3.538;2022-12-29T09:46:34;14.93;;;2.60;;
32705;SDS011;19094;50.972;3.538;2022-12-29T09:51:54;20.90;;;3.13;;
32705;SDS011;19094;50.972;3.538;2022-12-29T09:57:24;16.73;;;2.67;;
32705;SDS011;19094;50.972;3.538;2022-12-29T10:02:53;21.17;;;3.42;;
32705;SDS011;19094;50.972;3.538;2022-12-29T10:05:29;16.60;;;2.95;;
32705;SDS011;19094;50.972;3.538;2022-12-29T10:13:21;17.80;;;3.67;;
32705;SDS011;19094;50.972;3.538;2022-12-29T10:16:18;17.75;;;3.53;;
32705;SDS011;19094;50.972;3.538;2022-12-29T10:23:54;17.70;;;2.70;;
32705;SDS011;19094;50.972;3.538;2022-12-29T10:26:22;11.15;;;2.47;;
32705;SDS011;19094;50.972;3.538;2022-12-29T10:28:54;15.30;;;2.38;;
32705;SDS011;19094;50.972;3.538;2022-12-29T10:31:43;14.20;;;2.25;;
32705;SDS011;19094;50.972;3.538;2022-12-29T10:34:20;15.23;;;2.90;;
32705;SDS011;19094;50.972;3.538;2022-12-29T10:36:47;12.25;;;2.40;;
32705;SDS011;19094;50.972;3.538;2022-12-29T10:39:19;13.30;;;2.35;;
32705;SDS011;19094;50.972;3.538;2022-12-29T10:42:42;12.52;;;2.10;;
32705;SDS011;19094;50.972;3.538;2022-12-29T10:44:58;12.18;;;2.13;;
32705;SDS011;19094;50.972;3.538;2022-12-29T10:47:26;9.13;;;1.75;;
32705;SDS011;19094;50.972;3.538;2022-12-29T10:49:56;13.43;;;2.67;;
32705;SDS011;19094;50.972;3.538;2022-12-29T10:52:23;22.92;;;3.30;;
32705;SDS011;19094;50.972;3.538;2022-12-29T10:54:55;15.80;;;3.03;;
32705;SDS011;19094;50.972;3.538;2022-12-29T10:57:41;9.80;;;2.33;;
32705;SDS011;19094;50.972;3.538;2022-12-29T11:00:27;7.55;;;1.38;;
32705;SDS011;19094;50.972;3.538;2022-12-29T11:03:12;10.80;;;1.77;;
32705;SDS011;19094;50.972;3.538;2022-12-29T11:05:53;12.85;;;3.00;;
32705;SDS011;19094;50.972;3.538;2022-12-29T11:08:22;13.05;;;2.05;;
32705;SDS011;19094;50.972;3.538;2022-12-29T11:11:05;15.20;;;2.55;;
32705;SDS011;19094;50.972;3.538;2022-12-29T11:13:34;11.80;;;1.90;;
32705;SDS011;19094;50.972;3.538;2022-12-29T11:16:28;10.35;;;1.80;;
32705;SDS011;19094;50.972;3.538;2022-12-29T11:18:59;8.05;;;2.28;;
32705;SDS011;19094;50.972;3.538;2022-12-29T11:24:03;14.52;;;2.42;;
32705;SDS011;19094;50.972;3.538;2022-12-29T11:26:30;10.82;;;1.90;;
32705;SDS011;19094;50.972;3.538;2022-12-29T11:31:51;8.68;;;2.10;;
32705;SDS011;19094;50.972;3.538;2022-12-29T11:34:26;11.75;;;2.33;;
32705;SDS011;19094;50.972;3.538;2022-12-29T11:37:19;16.80;;;2.20;;
32705;SDS011;19094;50.972;3.538;2022-12-29T11:42:40;16.25;;;2.88;;
32705;SDS011;19094;50.972;3.538;2022-12-29T11:45:20;27.17;;;4.45;;
32705;SDS011;19094;50.972;3.538;2022-12-29T11:48:00;12.63;;;2.15;;
32705;SDS011;19094;50.972;3.538;2022-12-29T11:50:36;14.93;;;2.03;;
32705;SDS011;19094;50.972;3.538;2022-12-29T11:53:13;13.20;;;1.85;;
32705;SDS011;19094;50.972;3.538;2022-12-29T11:55:56;20.95;;;2.85;;
32705;SDS011;19094;50.972;3.538;2022-12-29T11:58:30;14.68;;;2.80;;
32705;SDS011;19094;50.972;3.538;2022-12-29T12:01:07;22.30;;;2.70;;
32705;SDS011;19094;50.972;3.538;2022-12-29T12:03:36;12.05;;;2.08;;
32705;SDS011;19094;50.972;3.538;2022-12-29T12:06:06;18.25;;;2.40;;
32705;SDS011;19094;50.972;3.538;2022-12-29T12:11:41;14.07;;;1.95;;
32705;SDS011;19094;50.972;3.538;2022-12-29T12:16:43;12.80;;;1.70;;
32705;SDS011;19094;50.972;3.538;2022-12-29T12:22:00;14.83;;;1.90;;
32705;SDS011;19094;50.972;3.538;2022-12-29T12:24:42;9.15;;;2.15;;
32705;SDS011;19094;50.972;3.538;2022-12-29T12:27:20;14.13;;;1.95;;
32705;SDS011;19094;50.972;3.538;2022-12-29T12:32:56;10.80;;;2.05;;
32705;SDS011;19094;50.972;3.538;2022-12-29T12:38:31;12.70;;;1.73;;
32705;SDS011;19094;50.972;3.538;2022-12-29T12:44:12;10.88;;;1.83;;
32705;SDS011;19094;50.972;3.538;2022-12-29T12:49:33;13.75;;;2.25;;
32705;SDS011;19094;50.972;3.538;2022-12-29T12:52:37;10.98;;;2.05;;
32705;SDS011;19094;50.972;3.538;2022-12-29T12:58:14;8.57;;;1.48;;
32705;SDS011;19094;50.972;3.538;2022-12-29T13:06:22;10.30;;;1.70;;
32705;SDS011;19094;50.972;3.538;2022-12-29T13:09:11;11.50;;;1.75;;
32705;SDS011;19094;50.972;3.538;2022-12-29T13:12:12;5.28;;;1.08;;
32705;SDS011;19094;50.972;3.538;2022-12-29T13:17:29;8.90;;;1.63;;
32705;SDS011;19094;50.972;3.538;2022-12-29T13:23:07;5.68;;;1.00;;
32705;SDS011;19094;50.972;3.538;2022-12-29T13:25:55;5.50;;;1.02;;
32705;SDS011;19094;50.972;3.538;2022-12-29T13:31:09;3.45;;;0.65;;
32705;SDS011;19094;50.972;3.538;2022-12-29T13:36:27;6.45;;;1.00;;
32705;SDS011;19094;50.972;3.538;2022-12-29T13:39:01;5.90;;;1.10;;
32705;SDS011;19094;50.972;3.538;2022-12-29T13:41:41;7.78;;;1.50;;
32705;SDS011;19094;50.972;3.538;2022-12-29T13:44:44;3.92;;;1.13;;
32705;SDS011;19094;50.972;3.538;2022-12-29T13:47:15;4.18;;;0.82;;
32705;SDS011;19094;50.972;3.538;2022-12-29T13:49:44;5.07;;;1.33;;
32705;SDS011;19094;50.972;3.538;2022-12-29T13:52:16;10.25;;;1.58;;
32705;SDS011;19094;50.972;3.538;2022-12-29T14:00:14;4.00;;;1.20;;
32705;SDS011;19094;50.972;3.538;2022-12-29T14:07:45;7.35;;;1.20;;
32705;SDS011;19094;50.972;3.538;2022-12-29T14:10:26;8.85;;;1.20;;
32705;SDS011;19094;50.972;3.538;2022-12-29T14:13:10;4.95;;;0.90;;
32705;SDS011;19094;50.972;3.538;2022-12-29T14:15:44;6.65;;;1.25;;
32705;SDS011;19094;50.972;3.538;2022-12-29T14:18:23;7.18;;;1.20;;
32705;SDS011;19094;50.972;3.538;2022-12-29T14:21:10;9.00;;;1.88;;
32705;SDS011;19094;50.972;3.538;2022-12-29T14:23:48;11.75;;;1.38;;
32705;SDS011;19094;50.972;3.538;2022-12-29T14:28:57;4.85;;;1.50;;
32705;SDS011;19094;50.972;3.538;2022-12-29T14:32:00;5.95;;;1.55;;
32705;SDS011;19094;50.972;3.538;2022-12-29T14:34:27;2.63;;;0.80;;
32705;SDS011;19094;50.972;3.538;2022-12-29T14:37:01;8.57;;;1.65;;
32705;SDS011;19094;50.972;3.538;2022-12-29T14:47:36;12.32;;;2.40;;
32705;SDS011;19094;50.972;3.538;2022-12-29T15:00:46;15.43;;;4.55;;
32705;SDS011;19094;50.972;3.538;2022-12-29T15:05:59;15.63;;;2.78;;
32705;SDS011;19094;50.972;3.538;2022-12-29T15:11:15;21.25;;;3.40;;
32705;SDS011;19094;50.972;3.538;2022-12-29T15:13:44;18.45;;;2.35;;
32705;SDS011;19094;50.972;3.538;2022-12-29T15:16:29;10.77;;;1.88;;
32705;SDS011;19094;50.972;3.538;2022-12-29T15:18:56;12.93;;;2.42;;
32705;SDS011;19094;50.972;3.538;2022-12-29T15:21:26;13.27;;;1.73;;
32705;SDS011;19094;50.972;3.538;2022-12-29T15:24:11;8.52;;;1.38;;
32705;SDS011;19094;50.972;3.538;2022-12-29T15:26:41;6.55;;;1.10;;
32705;SDS011;19094;50.972;3.538;2022-12-29T15:32:01;18.60;;;1.98;;
32705;SDS011;19094;50.972;3.538;2022-12-29T15:34:36;8.25;;;1.98;;
32705;SDS011;19094;50.972;3.538;2022-12-29T15:37:06;17.00;;;3.20;;
32705;SDS011;19094;50.972;3.538;2022-12-29T15:39:32;10.32;;;2.35;;
32705;SDS011;19094;50.972;3.538;2022-12-29T15:44:45;13.27;;;2.60;;
32705;SDS011;19094;50.972;3.538;2022-12-29T15:49:39;26.13;;;4.10;;
32705;SDS011;19094;50.972;3.538;2022-12-29T15:52:08;25.05;;;6.93;;
32705;SDS011;19094;50.972;3.538;2022-12-29T15:54:34;24.65;;;6.25;;
32705;SDS011;19094;50.972;3.538;2022-12-29T15:57:02;20.35;;;3.53;;
32705;SDS011;19094;50.972;3.538;2022-12-29T16:01:59;11.52;;;2.40;;
32705;SDS011;19094;50.972;3.538;2022-12-29T16:04:27;11.55;;;3.03;;
32705;SDS011;19094;50.972;3.538;2022-12-29T16:07:01;15.70;;;2.85;;
32705;SDS011;19094;50.972;3.538;2022-12-29T16:09:30;14.02;;;3.85;;
32705;SDS011;19094;50.972;3.538;2022-12-29T16:11:59;16.73;;;3.40;;
32705;SDS011;19094;50.972;3.538;2022-12-29T16:16:58;12.15;;;2.90;;
32705;SDS011;19094;50.972;3.538;2022-12-29T16:19:27;18.60;;;2.72;;
32705;SDS011;19094;50.972;3.538;2022-12-29T16:21:54;20.42;;;3.50;;
32705;SDS011;19094;50.972;3.538;2022-12-29T16:24:23;14.43;;;2.72;;
32705;SDS011;19094;50.972;3.538;2022-12-29T16:27:16;20.38;;;3.22;;
32705;SDS011;19094;50.972;3.538;2022-12-29T16:29:56;16.75;;;2.90;;
32705;SDS011;19094;50.972;3.538;2022-12-29T16:34:47;22.73;;;3.53;;
32705;SDS011;19094;50.972;3.538;2022-12-29T16:47:48;16.48;;;3.35;;
32705;SDS011;19094;50.972;3.538;2022-12-29T16:50:20;20.45;;;3.38;;
32705;SDS011;19094;50.972;3.538;2022-12-29T16:52:50;18.73;;;3.40;;
32705;SDS011;19094;50.972;3.538;2022-12-29T16:55:16;19.33;;;3.55;;
32705;SDS011;19094;50.972;3.538;2022-12-29T16:57:44;20.30;;;3.25;;
32705;SDS011;19094;50.972;3.538;2022-12-29T17:00:19;16.15;;;3.78;;
32705;SDS011;19094;50.972;3.538;2022-12-29T17:02:46;15.95;;;3.20;;
32705;SDS011;19094;50.972;3.538;2022-12-29T17:05:15;16.48;;;3.25;;
32705;SDS011;19094;50.972;3.538;2022-12-29T17:07:42;15.93;;;3.50;;
32705;SDS011;19094;50.972;3.538;2022-12-29T17:10:09;24.73;;;4.60;;
32705;SDS011;19094;50.972;3.538;2022-12-29T17:12:34;24.52;;;4.38;;
32705;SDS011;19094;50.972;3.538;2022-12-29T17:15:13;22.17;;;4.47;;
32705;SDS011;19094;50.972;3.538;2022-12-29T17:17:52;16.55;;;4.38;;
32705;SDS011;19094;50.972;3.538;2022-12-29T17:20:24;12.70;;;3.10;;
32705;SDS011;19094;50.972;3.538;2022-12-29T17:25:21;19.40;;;3.22;;
32705;SDS011;19094;50.972;3.538;2022-12-29T17:28:01;16.52;;;3.08;;
32705;SDS011;19094;50.972;3.538;2022-12-29T17:30:31;20.63;;;3.85;;
32705;SDS011;19094;50.972;3.538;2022-12-29T17:32:59;15.40;;;3.80;;
32705;SDS011;19094;50.972;3.538;2022-12-29T17:35:26;18.67;;;3.65;;
32705;SDS011;19094;50.972;3.538;2022-12-29T17:37:53;17.33;;;3.95;;
32705;SDS011;19094;50.972;3.538;2022-12-29T17:40:29;30.00;;;4.85;;
32705;SDS011;19094;50.972;3.538;2022-12-29T17:42:57;19.85;;;3.72;;
32705;SDS011;19094;50.972;3.538;2022-12-29T17:47:56;22.08;;;4.13;;
32705;SDS011;19094;50.972;3.538;2022-12-29T17:50:26;17.35;;;3.58;;
32705;SDS011;19094;50.972;3.538;2022-12-29T17:53:03;20.77;;;3.45;;
32705;SDS011;19094;50.972;3.538;2022-12-29T17:55:31;18.85;;;4.45;;
32705;SDS011;19094;50.972;3.538;2022-12-29T17:57:57;21.60;;;6.18;;
32705;SDS011;19094;50.972;3.538;2022-12-29T18:00:24;12.55;;;2.97;;
32705;SDS011;19094;50.972;3.538;2022-12-29T18:02:52;18.65;;;2.72;;
32705;SDS011;19094;50.972;3.538;2022-12-29T18:07:52;13.23;;;2.60;;
32705;SDS011;19094;50.972;3.538;2022-12-29T18:10:20;10.18;;;2.85;;
32705;SDS011;19094;50.972;3.538;2022-12-29T18:12:47;10.85;;;3.35;;